sensor_id;sensor_type;location;lat;lon;timestamp;pressure;altitude;pressure_sealevel;temperature;humidity
44926;BME280;30662;51.210;7.656;2022-08-16T00:02:21;95521.06;;;19.40;79.54
44926;BME280;30662;51.210;7.656;2022-08-16T00:04:47;95525.25;;;19.33;80.34
44926;BME280;30662;51.210;7.656;2022-08-16T00:07:17;95522.13;;;19.08;82.06
44926;BME280;30662;51.210;7.656;2022-08-16T00:09:43;95521.81;;;19.10;82.49
44926;BME280;30662;51.210;7.656;2022-08-16T00:12:09;95518.06;;;19.11;83.00
44926;BME280;30662;51.210;7.656;2022-08-16T00:14:35;95526.47;;;19.26;82.16
44926;BME280;30662;51.210;7.656;2022-08-16T00:17:02;95530.50;;;19.15;82.94
44926;BME280;30662;51.210;7.656;2022-08-16T00:19:44;95532.75;;;19.22;82.93
44926;BME280;30662;51.210;7.656;2022-08-16T00:22:11;95539.91;;;19.13;83.68
44926;BME280;30662;51.210;7.656;2022-08-16T00:24:41;95542.06;;;18.88;85.43
44926;BME280;30662;51.210;7.656;2022-08-16T00:27:12;95545.03;;;18.87;85.83
44926;BME280;30662;51.210;7.656;2022-08-16T00:29:38;95548.56;;;18.96;85.50
44926;BME280;30662;51.210;7.656;2022-08-16T00:32:05;95540.13;;;18.80;86.69
44926;BME280;30662;51.210;7.656;2022-08-16T00:34:34;95542.75;;;18.94;86.17
44926;BME280;30662;51.210;7.656;2022-08-16T00:37:18;95541.00;;;19.12;85.02
44926;BME280;30662;51.210;7.656;2022-08-16T00:39:46;95543.91;;;19.01;85.59
44926;BME280;30662;51.210;7.656;2022-08-16T00:42:23;95544.16;;;19.14;85.02
44926;BME280;30662;51.210;7.656;2022-08-16T00:45:07;95545.78;;;19.01;85.74
44926;BME280;30662;51.210;7.656;2022-08-16T00:47:36;95549.06;;;18.98;86.06
44926;BME280;30662;51.210;7.656;2022-08-16T00:50:05;95548.69;;;18.91;86.32
44926;BME280;30662;51.210;7.656;2022-08-16T00:52:38;95560.72;;;19.02;86.15
44926;BME280;30662;51.210;7.656;2022-08-16T00:55:16;95547.59;;;18.92;86.64
44926;BME280;30662;51.210;7.656;2022-08-16T00:57:43;95551.06;;;18.92;86.62
44926;BME280;30662;51.210;7.656;2022-08-16T01:00:31;95551.81;;;19.07;85.84
44926;BME280;30662;51.210;7.656;2022-08-16T01:03:01;95555.84;;;19.04;85.80
44926;BME280;30662;51.210;7.656;2022-08-16T01:05:29;95551.66;;;18.89;86.67
44926;BME280;30662;51.210;7.656;2022-08-16T01:07:58;95548.19;;;18.89;86.83
44926;BME280;30662;51.210;7.656;2022-08-16T01:10:28;95558.16;;;18.97;86.47
44926;BME280;30662;51.210;7.656;2022-08-16T01:13:13;95554.69;;;18.96;86.36
44926;BME280;30662;51.210;7.656;2022-08-16T01:15:46;95549.34;;;18.96;86.28
44926;BME280;30662;51.210;7.656;2022-08-16T01:18:21;95552.25;;;18.86;86.87
44926;BME280;30662;51.210;7.656;2022-08-16T01:21:23;95549.84;;;18.98;86.50
44926;BME280;30662;51.210;7.656;2022-08-16T01:24:04;95547.66;;;19.00;86.25
44926;BME280;30662;51.210;7.656;2022-08-16T01:26:58;95539.53;;;18.83;87.02
44926;BME280;30662;51.210;7.656;2022-08-16T01:29:37;95534.44;;;18.95;86.26
44926;BME280;30662;51.210;7.656;2022-08-16T01:32:26;95542.00;;;18.80;87.26
44926;BME280;30662;51.210;7.656;2022-08-16T01:34:59;95544.06;;;18.83;86.98
44926;BME280;30662;51.210;7.656;2022-08-16T01:37:26;95539.22;;;18.85;86.73
44926;BME280;30662;51.210;7.656;2022-08-16T01:40:02;95542.56;;;18.90;86.32
44926;BME280;30662;51.210;7.656;2022-08-16T01:42:32;95532.53;;;18.96;86.05
44926;BME280;30662;51.210;7.656;2022-08-16T01:44:59;95534.47;;;18.82;86.58
44926;BME280;30662;51.210;7.656;2022-08-16T01:47:26;95532.97;;;18.89;86.16
44926;BME280;30662;51.210;7.656;2022-08-16T01:49:54;95526.97;;;18.84;86.36
44926;BME280;30662;51.210;7.656;2022-08-16T01:52:40;95532.03;;;18.71;87.10
44926;BME280;30662;51.210;7.656;2022-08-16T01:55:11;95534.59;;;18.77;86.77
44926;BME280;30662;51.210;7.656;2022-08-16T01:57:39;95533.81;;;18.76;86.59
44926;BME280;30662;51.210;7.656;2022-08-16T02:00:19;95527.38;;;18.63;87.17
44926;BME280;30662;51.210;7.656;2022-08-16T02:02:54;95534.88;;;18.61;87.38
44926;BME280;30662;51.210;7.656;2022-08-16T02:05:20;95531.03;;;18.67;87.04
44926;BME280;30662;51.210;7.656;2022-08-16T02:07:49;95530.47;;;18.70;86.79
44926;BME280;30662;51.210;7.656;2022-08-16T02:10:17;95530.94;;;18.72;86.43
44926;BME280;30662;51.210;7.656;2022-08-16T02:12:43;95535.09;;;18.65;86.99
44926;BME280;30662;51.210;7.656;2022-08-16T02:15:21;95541.31;;;18.60;87.07
44926;BME280;30662;51.210;7.656;2022-08-16T02:17:51;95529.28;;;18.49;87.50
44926;BME280;30662;51.210;7.656;2022-08-16T02:20:20;95534.72;;;18.58;87.38
44926;BME280;30662;51.210;7.656;2022-08-16T02:22:54;95532.44;;;18.51;87.40
44926;BME280;30662;51.210;7.656;2022-08-16T02:25:21;95530.47;;;18.43;87.99
44926;BME280;30662;51.210;7.656;2022-08-16T02:27:47;95533.72;;;18.54;87.66
44926;BME280;30662;51.210;7.656;2022-08-16T02:30:21;95531.16;;;18.49;87.58
44926;BME280;30662;51.210;7.656;2022-08-16T02:33:07;95531.56;;;18.42;88.18
44926;BME280;30662;51.210;7.656;2022-08-16T02:35:35;95536.28;;;18.45;87.77
44926;BME280;30662;51.210;7.656;2022-08-16T02:38:20;95525.84;;;18.49;87.74
44926;BME280;30662;51.210;7.656;2022-08-16T02:40:46;95540.38;;;18.42;88.14
44926;BME280;30662;51.210;7.656;2022-08-16T02:43:14;95533.63;;;18.45;87.85
44926;BME280;30662;51.210;7.656;2022-08-16T02:45:40;95529.00;;;18.51;87.60
44926;BME280;30662;51.210;7.656;2022-08-16T02:48:06;95534.03;;;18.25;88.74
44926;BME280;30662;51.210;7.656;2022-08-16T02:50:53;95533.16;;;18.29;88.93
44926;BME280;30662;51.210;7.656;2022-08-16T02:53:38;95525.94;;;18.43;88.21
44926;BME280;30662;51.210;7.656;2022-08-16T02:56:05;95532.47;;;18.37;88.35
44926;BME280;30662;51.210;7.656;2022-08-16T02:58:35;95526.03;;;18.25;88.95
44926;BME280;30662;51.210;7.656;2022-08-16T03:01:02;95527.13;;;18.10;89.79
44926;BME280;30662;51.210;7.656;2022-08-16T03:03:29;95529.13;;;18.04;90.49
44926;BME280;30662;51.210;7.656;2022-08-16T03:06:16;95523.69;;;18.09;90.04
44926;BME280;30662;51.210;7.656;2022-08-16T03:09:05;95520.34;;;18.04;90.37
44926;BME280;30662;51.210;7.656;2022-08-16T03:11:31;95524.78;;;18.08;90.16
44926;BME280;30662;51.210;7.656;2022-08-16T03:14:01;95523.91;;;17.99;91.18
44926;BME280;30662;51.210;7.656;2022-08-16T03:16:32;95533.78;;;17.99;91.42
44926;BME280;30662;51.210;7.656;2022-08-16T03:19:18;95532.59;;;17.91;91.78
44926;BME280;30662;51.210;7.656;2022-08-16T03:21:47;95525.56;;;17.95;91.50
44926;BME280;30662;51.210;7.656;2022-08-16T03:24:17;95526.06;;;17.97;91.48
44926;BME280;30662;51.210;7.656;2022-08-16T03:26:59;95524.00;;;18.08;90.99
44926;BME280;30662;51.210;7.656;2022-08-16T03:29:30;95523.03;;;18.04;91.19
44926;BME280;30662;51.210;7.656;2022-08-16T03:32:00;95523.28;;;18.02;91.61
44926;BME280;30662;51.210;7.656;2022-08-16T03:34:28;95531.09;;;18.12;90.65
44926;BME280;30662;51.210;7.656;2022-08-16T03:36:55;95536.53;;;18.07;90.74
44926;BME280;30662;51.210;7.656;2022-08-16T03:39:22;95533.69;;;18.04;91.24
44926;BME280;30662;51.210;7.656;2022-08-16T03:41:48;95535.84;;;18.15;90.76
44926;BME280;30662;51.210;7.656;2022-08-16T03:44:16;95539.41;;;18.11;90.77
44926;BME280;30662;51.210;7.656;2022-08-16T03:47:03;95541.25;;;18.10;91.02
44926;BME280;30662;51.210;7.656;2022-08-16T03:49:29;95539.91;;;18.13;90.66
44926;BME280;30662;51.210;7.656;2022-08-16T03:52:02;95539.00;;;18.04;91.02
44926;BME280;30662;51.210;7.656;2022-08-16T03:54:29;95542.25;;;18.01;91.50
44926;BME280;30662;51.210;7.656;2022-08-16T03:56:54;95546.00;;;18.00;91.61
44926;BME280;30662;51.210;7.656;2022-08-16T03:59:23;95541.28;;;17.97;91.64
44926;BME280;30662;51.210;7.656;2022-08-16T04:01:49;95539.50;;;18.06;91.15
44926;BME280;30662;51.210;7.656;2022-08-16T04:04:19;95541.88;;;18.07;90.96
44926;BME280;30662;51.210;7.656;2022-08-16T04:06:58;95544.13;;;18.14;90.77
44926;BME280;30662;51.210;7.656;2022-08-16T04:09:24;95546.41;;;18.07;90.95
44926;BME280;30662;51.210;7.656;2022-08-16T04:11:51;95538.72;;;18.05;91.23
44926;BME280;30662;51.210;7.656;2022-08-16T04:14:18;95537.53;;;18.11;90.72
44926;BME280;30662;51.210;7.656;2022-08-16T04:16:58;95539.69;;;18.09;90.95
44926;BME280;30662;51.210;7.656;2022-08-16T04:19:27;95540.19;;;18.11;90.81
44926;BME280;30662;51.210;7.656;2022-08-16T04:21:57;95539.69;;;18.09;90.88
44926;BME280;30662;51.210;7.656;2022-08-16T04:24:25;95549.75;;;17.99;91.51
44926;BME280;30662;51.210;7.656;2022-08-16T04:26:54;95539.88;;;17.99;91.63
44926;BME280;30662;51.210;7.656;2022-08-16T04:29:20;95546.41;;;17.93;92.17
44926;BME280;30662;51.210;7.656;2022-08-16T04:31:51;95549.94;;;18.02;91.61
44926;BME280;30662;51.210;7.656;2022-08-16T04:34:28;95549.34;;;17.91;92.15
44926;BME280;30662;51.210;7.656;2022-08-16T04:36:55;95555.50;;;18.06;91.31
44926;BME280;30662;51.210;7.656;2022-08-16T04:39:23;95555.81;;;18.18;90.86
44926;BME280;30662;51.210;7.656;2022-08-16T04:41:49;95550.84;;;18.11;90.86
44926;BME280;30662;51.210;7.656;2022-08-16T04:44:22;95562.09;;;17.95;91.76
44926;BME280;30662;51.210;7.656;2022-08-16T04:47:09;95559.25;;;18.18;90.62
44926;BME280;30662;51.210;7.656;2022-08-16T04:49:49;95558.47;;;18.04;91.37
44926;BME280;30662;51.210;7.656;2022-08-16T04:52:18;95562.72;;;18.19;90.60
44926;BME280;30662;51.210;7.656;2022-08-16T04:55:05;95569.00;;;18.23;90.65
44926;BME280;30662;51.210;7.656;2022-08-16T04:57:33;95569.69;;;18.15;90.61
44926;BME280;30662;51.210;7.656;2022-08-16T04:59:59;95570.88;;;18.23;90.29
44926;BME280;30662;51.210;7.656;2022-08-16T05:02:48;95566.25;;;18.14;91.06
44926;BME280;30662;51.210;7.656;2022-08-16T05:05:24;95572.47;;;18.37;89.58
44926;BME280;30662;51.210;7.656;2022-08-16T05:07:56;95569.88;;;18.46;88.95
44926;BME280;30662;51.210;7.656;2022-08-16T05:10:26;95571.19;;;18.35;89.60
44926;BME280;30662;51.210;7.656;2022-08-16T05:12:52;95567.91;;;18.38;89.64
44926;BME280;30662;51.210;7.656;2022-08-16T05:15:19;95568.63;;;18.43;89.54
44926;BME280;30662;51.210;7.656;2022-08-16T05:17:46;95569.56;;;18.61;88.31
44926;BME280;30662;51.210;7.656;2022-08-16T05:20:24;95568.91;;;18.56;88.52
44926;BME280;30662;51.210;7.656;2022-08-16T05:23:11;95574.63;;;18.63;88.47
44926;BME280;30662;51.210;7.656;2022-08-16T05:25:39;95576.41;;;18.54;88.84
44926;BME280;30662;51.210;7.656;2022-08-16T05:28:15;95579.16;;;18.62;88.33
44926;BME280;30662;51.210;7.656;2022-08-16T05:30:41;95577.78;;;18.79;87.45
44926;BME280;30662;51.210;7.656;2022-08-16T05:33:09;95583.53;;;18.72;87.87
44926;BME280;30662;51.210;7.656;2022-08-16T05:35:42;95583.63;;;18.67;88.02
44926;BME280;30662;51.210;7.656;2022-08-16T05:38:08;95586.09;;;18.77;87.31
44926;BME280;30662;51.210;7.656;2022-08-16T05:40:56;95578.81;;;18.69;87.75
44926;BME280;30662;51.210;7.656;2022-08-16T05:43:26;95583.50;;;18.86;86.91
44926;BME280;30662;51.210;7.656;2022-08-16T05:45:58;95584.28;;;18.86;86.96
44926;BME280;30662;51.210;7.656;2022-08-16T05:48:24;95589.00;;;18.89;86.80
44926;BME280;30662;51.210;7.656;2022-08-16T05:50:52;95585.44;;;18.94;86.58
44926;BME280;30662;51.210;7.656;2022-08-16T05:53:18;95591.59;;;18.81;87.44
44926;BME280;30662;51.210;7.656;2022-08-16T05:55:47;95588.94;;;18.81;87.33
44926;BME280;30662;51.210;7.656;2022-08-16T05:58:13;95589.53;;;18.91;86.55
44926;BME280;30662;51.210;7.656;2022-08-16T06:00:58;95592.28;;;18.86;87.05
44926;BME280;30662;51.210;7.656;2022-08-16T06:03:24;95584.25;;;19.00;86.37
44926;BME280;30662;51.210;7.656;2022-08-16T06:05:50;95581.66;;;19.09;85.88
44926;BME280;30662;51.210;7.656;2022-08-16T06:08:16;95586.00;;;19.05;86.08
44926;BME280;30662;51.210;7.656;2022-08-16T06:10:58;95595.75;;;19.23;85.37
44926;BME280;30662;51.210;7.656;2022-08-16T06:13:35;95597.94;;;19.21;85.38
44926;BME280;30662;51.210;7.656;2022-08-16T06:16:04;95601.16;;;19.32;85.15
44926;BME280;30662;51.210;7.656;2022-08-16T06:18:31;95598.34;;;19.14;86.10
44926;BME280;30662;51.210;7.656;2022-08-16T06:20:58;95602.41;;;19.12;86.35
44926;BME280;30662;51.210;7.656;2022-08-16T06:23:25;95601.63;;;19.34;84.80
44926;BME280;30662;51.210;7.656;2022-08-16T06:25:52;95602.97;;;19.22;85.43
44926;BME280;30662;51.210;7.656;2022-08-16T06:28:19;95608.69;;;19.29;85.54
44926;BME280;30662;51.210;7.656;2022-08-16T06:31:02;95614.44;;;19.23;85.56
44926;BME280;30662;51.210;7.656;2022-08-16T06:33:30;95611.78;;;19.23;85.87
44926;BME280;30662;51.210;7.656;2022-08-16T06:36:08;95610.63;;;19.38;nan
44926;BME280;30662;51.210;7.656;2022-08-16T06:38:35;95613.19;;;19.43;84.34
44926;BME280;30662;51.210;7.656;2022-08-16T06:41:07;95614.16;;;19.47;84.14
44926;BME280;30662;51.210;7.656;2022-08-16T06:43:39;95615.34;;;19.41;85.02
44926;BME280;30662;51.210;7.656;2022-08-16T06:46:07;95605.22;;;19.51;84.80
44926;BME280;30662;51.210;7.656;2022-08-16T06:48:36;95616.19;;;19.64;83.49
44926;BME280;30662;51.210;7.656;2022-08-16T06:51:08;95621.75;;;19.53;84.21
44926;BME280;30662;51.210;7.656;2022-08-16T06:53:34;95613.22;;;19.65;83.50
44926;BME280;30662;51.210;7.656;2022-08-16T06:56:04;95614.84;;;19.75;83.17
44926;BME280;30662;51.210;7.656;2022-08-16T06:58:40;95615.63;;;19.75;83.51
44926;BME280;30662;51.210;7.656;2022-08-16T07:01:09;95613.25;;;19.74;83.30
44926;BME280;30662;51.210;7.656;2022-08-16T07:03:41;95618.41;;;19.93;82.41
44926;BME280;30662;51.210;7.656;2022-08-16T07:06:21;95628.19;;;19.97;82.28
44926;BME280;30662;51.210;7.656;2022-08-16T07:08:53;95630.72;;;20.02;82.13
44926;BME280;30662;51.210;7.656;2022-08-16T07:11:19;95635.81;;;20.13;81.59
44926;BME280;30662;51.210;7.656;2022-08-16T07:14:05;95638.81;;;20.20;81.48
44926;BME280;30662;51.210;7.656;2022-08-16T07:16:51;95628.63;;;20.22;81.43
44926;BME280;30662;51.210;7.656;2022-08-16T07:19:17;95642.47;;;20.24;80.64
44926;BME280;30662;51.210;7.656;2022-08-16T07:21:44;95639.13;;;20.18;80.99
44926;BME280;30662;51.210;7.656;2022-08-16T07:24:25;95643.72;;;20.18;80.80
44926;BME280;30662;51.210;7.656;2022-08-16T07:26:58;95647.50;;;20.25;79.99
44926;BME280;30662;51.210;7.656;2022-08-16T07:29:26;95642.97;;;20.34;79.89
44926;BME280;30662;51.210;7.656;2022-08-16T07:31:57;95639.69;;;20.29;80.34
44926;BME280;30662;51.210;7.656;2022-08-16T07:34:26;95643.75;;;20.57;79.51
44926;BME280;30662;51.210;7.656;2022-08-16T07:37:09;95645.50;;;20.62;78.68
44926;BME280;30662;51.210;7.656;2022-08-16T07:39:36;95658.56;;;20.63;78.50
44926;BME280;30662;51.210;7.656;2022-08-16T07:42:10;95654.31;;;20.62;78.05
44926;BME280;30662;51.210;7.656;2022-08-16T07:44:51;95649.75;;;20.63;78.26
44926;BME280;30662;51.210;7.656;2022-08-16T07:47:17;95656.84;;;20.68;77.82
44926;BME280;30662;51.210;7.656;2022-08-16T07:49:43;95658.97;;;20.48;79.12
44926;BME280;30662;51.210;7.656;2022-08-16T07:52:18;95657.28;;;20.61;78.71
44926;BME280;30662;51.210;7.656;2022-08-16T07:54:46;95659.53;;;20.76;77.69
44926;BME280;30662;51.210;7.656;2022-08-16T07:57:14;95660.19;;;20.73;77.75
44926;BME280;30662;51.210;7.656;2022-08-16T07:59:44;95669.34;;;20.89;77.13
44926;BME280;30662;51.210;7.656;2022-08-16T08:02:12;95680.06;;;20.89;76.78
44926;BME280;30662;51.210;7.656;2022-08-16T08:04:46;95681.44;;;20.78;77.91
44926;BME280;30662;51.210;7.656;2022-08-16T08:07:13;95683.84;;;20.88;77.50
44926;BME280;30662;51.210;7.656;2022-08-16T08:09:42;95685.16;;;21.08;76.78
44926;BME280;30662;51.210;7.656;2022-08-16T08:12:08;95679.19;;;21.20;76.44
44926;BME280;30662;51.210;7.656;2022-08-16T08:14:54;95690.72;;;21.29;75.92
44926;BME280;30662;51.210;7.656;2022-08-16T08:17:20;95686.00;;;21.35;75.14
44926;BME280;30662;51.210;7.656;2022-08-16T08:19:47;95684.75;;;21.32;74.96
44926;BME280;30662;51.210;7.656;2022-08-16T08:22:20;95680.31;;;21.36;74.58
44926;BME280;30662;51.210;7.656;2022-08-16T08:24:48;95694.84;;;21.44;74.42
44926;BME280;30662;51.210;7.656;2022-08-16T08:27:13;95695.97;;;21.52;75.04
44926;BME280;30662;51.210;7.656;2022-08-16T08:29:48;95697.69;;;21.47;74.98
44926;BME280;30662;51.210;7.656;2022-08-16T08:32:35;95691.53;;;21.64;74.05
44926;BME280;30662;51.210;7.656;2022-08-16T08:35:21;95690.75;;;21.81;73.74
44926;BME280;30662;51.210;7.656;2022-08-16T08:37:52;95690.44;;;21.74;73.94
44926;BME280;30662;51.210;7.656;2022-08-16T08:40:24;95694.06;;;21.78;73.46
44926;BME280;30662;51.210;7.656;2022-08-16T08:42:54;95706.34;;;21.70;72.83
44926;BME280;30662;51.210;7.656;2022-08-16T08:45:27;95695.47;;;21.75;72.44
44926;BME280;30662;51.210;7.656;2022-08-16T08:48:14;95709.34;;;21.78;72.05
44926;BME280;30662;51.210;7.656;2022-08-16T08:50:59;95714.72;;;21.78;71.42
44926;BME280;30662;51.210;7.656;2022-08-16T08:53:28;95711.91;;;21.74;71.65
44926;BME280;30662;51.210;7.656;2022-08-16T08:55:56;95715.19;;;21.80;70.87
44926;BME280;30662;51.210;7.656;2022-08-16T08:58:24;95716.47;;;21.73;71.03
44926;BME280;30662;51.210;7.656;2022-08-16T09:01:00;95718.97;;;21.61;71.38
44926;BME280;30662;51.210;7.656;2022-08-16T09:03:27;95720.88;;;21.78;70.79
44926;BME280;30662;51.210;7.656;2022-08-16T09:05:58;95718.19;;;21.95;70.33
44926;BME280;30662;51.210;7.656;2022-08-16T09:08:25;95719.28;;;22.03;68.85
44926;BME280;30662;51.210;7.656;2022-08-16T09:10:53;95727.50;;;22.15;67.86
44926;BME280;30662;51.210;7.656;2022-08-16T09:13:27;95732.88;;;22.24;68.08
44926;BME280;30662;51.210;7.656;2022-08-16T09:15:58;95721.31;;;22.41;66.92
44926;BME280;30662;51.210;7.656;2022-08-16T09:18:23;95725.25;;;22.35;67.34
44926;BME280;30662;51.210;7.656;2022-08-16T09:21:01;95723.69;;;22.34;66.01
44926;BME280;30662;51.210;7.656;2022-08-16T09:23:29;95726.38;;;22.34;66.68
44926;BME280;30662;51.210;7.656;2022-08-16T09:26:04;95726.78;;;22.62;65.39
44926;BME280;30662;51.210;7.656;2022-08-16T09:28:50;95727.69;;;22.74;65.06
44926;BME280;30662;51.210;7.656;2022-08-16T09:31:36;95736.69;;;22.70;63.12
44926;BME280;30662;51.210;7.656;2022-08-16T09:34:06;95733.78;;;22.45;63.25
44926;BME280;30662;51.210;7.656;2022-08-16T09:36:32;95733.22;;;22.69;62.29
44926;BME280;30662;51.210;7.656;2022-08-16T09:38:59;95730.44;;;22.95;60.49
44926;BME280;30662;51.210;7.656;2022-08-16T09:41:28;95732.16;;;23.00;60.21
44926;BME280;30662;51.210;7.656;2022-08-16T09:43:55;95721.38;;;23.08;60.66
44926;BME280;30662;51.210;7.656;2022-08-16T09:46:28;95728.38;;;23.01;61.69
44926;BME280;30662;51.210;7.656;2022-08-16T09:49:15;95728.41;;;23.22;60.77
44926;BME280;30662;51.210;7.656;2022-08-16T09:51:49;95732.63;;;23.31;61.39
44926;BME280;30662;51.210;7.656;2022-08-16T09:54:22;95725.25;;;23.49;59.91
44926;BME280;30662;51.210;7.656;2022-08-16T09:56:48;95723.50;;;23.74;58.33
44926;BME280;30662;51.210;7.656;2022-08-16T09:59:20;95725.06;;;23.75;58.26
44926;BME280;30662;51.210;7.656;2022-08-16T10:01:47;95732.16;;;24.01;56.35
44926;BME280;30662;51.210;7.656;2022-08-16T10:04:16;95729.22;;;23.93;55.86
44926;BME280;30662;51.210;7.656;2022-08-16T10:07:00;95735.72;;;24.26;55.63
44926;BME280;30662;51.210;7.656;2022-08-16T10:09:31;95720.09;;;24.40;55.24
44926;BME280;30662;51.210;7.656;2022-08-16T10:12:17;95725.53;;;24.76;54.39
44926;BME280;30662;51.210;7.656;2022-08-16T10:15:09;95720.44;;;25.08;51.29
44926;BME280;30662;51.210;7.656;2022-08-16T10:17:41;95733.09;;;25.44;50.98
44926;BME280;30662;51.210;7.656;2022-08-16T10:20:08;95736.09;;;25.55;49.71
44926;BME280;30662;51.210;7.656;2022-08-16T10:22:43;95738.56;;;25.60;49.06
44926;BME280;30662;51.210;7.656;2022-08-16T10:25:10;95725.78;;;25.97;48.72
44926;BME280;30662;51.210;7.656;2022-08-16T10:27:56;95733.47;;;25.71;47.35
44926;BME280;30662;51.210;7.656;2022-08-16T10:30:42;95737.00;;;25.71;47.02
44926;BME280;30662;51.210;7.656;2022-08-16T10:33:11;95738.16;;;25.98;46.51
44926;BME280;30662;51.210;7.656;2022-08-16T10:35:42;95742.16;;;26.45;45.78
44926;BME280;30662;51.210;7.656;2022-08-16T10:38:13;95743.94;;;26.84;44.92
44926;BME280;30662;51.210;7.656;2022-08-16T10:40:53;95736.44;;;26.62;44.92
44926;BME280;30662;51.210;7.656;2022-08-16T10:43:19;95737.59;;;25.93;46.19
44926;BME280;30662;51.210;7.656;2022-08-16T10:45:45;95737.31;;;25.70;46.81
44926;BME280;30662;51.210;7.656;2022-08-16T10:48:27;95738.44;;;25.81;45.06
44926;BME280;30662;51.210;7.656;2022-08-16T10:50:55;95745.06;;;25.83;44.21
44926;BME280;30662;51.210;7.656;2022-08-16T10:53:27;95746.91;;;26.07;44.15
44926;BME280;30662;51.210;7.656;2022-08-16T10:56:08;95742.97;;;26.77;43.65
44926;BME280;30662;51.210;7.656;2022-08-16T10:58:54;95741.69;;;27.02;42.08
44926;BME280;30662;51.210;7.656;2022-08-16T11:01:22;95749.06;;;27.37;40.91
44926;BME280;30662;51.210;7.656;2022-08-16T11:04:09;95737.44;;;27.68;39.96
44926;BME280;30662;51.210;7.656;2022-08-16T11:06:55;95749.22;;;28.14;38.54
44926;BME280;30662;51.210;7.656;2022-08-16T11:09:41;95751.91;;;28.53;37.93
44926;BME280;30662;51.210;7.656;2022-08-16T11:12:09;95746.28;;;28.84;37.37
44926;BME280;30662;51.210;7.656;2022-08-16T11:14:40;95756.03;;;28.89;37.51
44926;BME280;30662;51.210;7.656;2022-08-16T11:17:26;95745.94;;;28.24;38.49
44926;BME280;30662;51.210;7.656;2022-08-16T11:19:52;95747.34;;;27.80;39.24
44926;BME280;30662;51.210;7.656;2022-08-16T11:22:39;95750.94;;;28.03;38.48
44926;BME280;30662;51.210;7.656;2022-08-16T11:25:23;95751.63;;;28.58;37.50
44926;BME280;30662;51.210;7.656;2022-08-16T11:28:09;95748.84;;;29.20;36.33
44926;BME280;30662;51.210;7.656;2022-08-16T11:30:36;95746.38;;;29.37;34.60
44926;BME280;30662;51.210;7.656;2022-08-16T11:33:05;95750.84;;;29.49;34.53
44926;BME280;30662;51.210;7.656;2022-08-16T11:35:32;95764.16;;;29.58;35.36
44926;BME280;30662;51.210;7.656;2022-08-16T11:38:20;95763.63;;;29.49;35.92
44926;BME280;30662;51.210;7.656;2022-08-16T11:41:07;95755.28;;;29.61;35.15
44926;BME280;30662;51.210;7.656;2022-08-16T11:43:37;95766.56;;;29.14;35.68
44926;BME280;30662;51.210;7.656;2022-08-16T11:46:07;95767.78;;;28.93;35.64
44926;BME280;30662;51.210;7.656;2022-08-16T11:48:53;95757.69;;;28.94;34.92
44926;BME280;30662;51.210;7.656;2022-08-16T11:51:20;95763.53;;;29.19;33.93
44926;BME280;30662;51.210;7.656;2022-08-16T11:53:45;95760.19;;;29.52;34.28
44926;BME280;30662;51.210;7.656;2022-08-16T11:56:11;95757.09;;;29.80;33.12
44926;BME280;30662;51.210;7.656;2022-08-16T11:58:41;95761.28;;;29.74;33.08
44926;BME280;30662;51.210;7.656;2022-08-16T12:01:07;95764.94;;;28.90;35.82
44926;BME280;30662;51.210;7.656;2022-08-16T12:03:36;95762.25;;;29.35;35.39
44926;BME280;30662;51.210;7.656;2022-08-16T12:06:10;95768.88;;;29.91;34.24
44926;BME280;30662;51.210;7.656;2022-08-16T12:08:56;95763.56;;;30.28;33.64
44926;BME280;30662;51.210;7.656;2022-08-16T12:11:28;95763.34;;;30.44;33.23
44926;BME280;30662;51.210;7.656;2022-08-16T12:14:00;95759.41;;;30.75;32.86
44926;BME280;30662;51.210;7.656;2022-08-16T12:16:30;95752.41;;;31.15;32.02
44926;BME280;30662;51.210;7.656;2022-08-16T12:19:03;95756.44;;;31.35;31.93
44926;BME280;30662;51.210;7.656;2022-08-16T12:21:31;95764.66;;;31.39;31.81
44926;BME280;30662;51.210;7.656;2022-08-16T12:24:16;95762.63;;;31.28;31.64
44926;BME280;30662;51.210;7.656;2022-08-16T12:26:42;95754.81;;;30.12;32.28
44926;BME280;30662;51.210;7.656;2022-08-16T12:29:09;95757.19;;;30.13;32.49
44926;BME280;30662;51.210;7.656;2022-08-16T12:31:35;95756.69;;;30.71;32.13
44926;BME280;30662;51.210;7.656;2022-08-16T12:34:02;95752.44;;;31.22;30.74
44926;BME280;30662;51.210;7.656;2022-08-16T12:36:32;95761.66;;;31.54;29.07
44926;BME280;30662;51.210;7.656;2022-08-16T12:39:04;95771.97;;;31.82;28.54
44926;BME280;30662;51.210;7.656;2022-08-16T12:41:33;95765.06;;;30.96;28.96
44926;BME280;30662;51.210;7.656;2022-08-16T12:44:04;95764.34;;;31.03;29.40
44926;BME280;30662;51.210;7.656;2022-08-16T12:46:32;95766.34;;;31.13;29.71
44926;BME280;30662;51.210;7.656;2022-08-16T12:49:00;95760.97;;;31.68;29.46
44926;BME280;30662;51.210;7.656;2022-08-16T12:51:35;95753.41;;;32.09;30.01
44926;BME280;30662;51.210;7.656;2022-08-16T12:54:21;95759.31;;;32.26;29.99
44926;BME280;30662;51.210;7.656;2022-08-16T12:56:47;95750.34;;;32.29;29.32
44926;BME280;30662;51.210;7.656;2022-08-16T12:59:16;95751.97;;;32.33;27.62
44926;BME280;30662;51.210;7.656;2022-08-16T13:01:47;95757.91;;;32.68;26.52
44926;BME280;30662;51.210;7.656;2022-08-16T13:04:16;95753.09;;;32.29;26.59
44926;BME280;30662;51.210;7.656;2022-08-16T13:06:49;95764.00;;;31.08;27.77
44926;BME280;30662;51.210;7.656;2022-08-16T13:09:18;95760.72;;;30.51;28.84
44926;BME280;30662;51.210;7.656;2022-08-16T13:12:03;95760.69;;;29.87;30.44
44926;BME280;30662;51.210;7.656;2022-08-16T13:14:36;95764.56;;;29.10;32.56
44926;BME280;30662;51.210;7.656;2022-08-16T13:17:06;95766.25;;;29.19;32.90
44926;BME280;30662;51.210;7.656;2022-08-16T13:19:34;95755.22;;;28.85;33.36
44926;BME280;30662;51.210;7.656;2022-08-16T13:22:21;95758.97;;;29.49;32.97
44926;BME280;30662;51.210;7.656;2022-08-16T13:24:47;95755.31;;;30.21;31.12
44926;BME280;30662;51.210;7.656;2022-08-16T13:27:13;95751.59;;;29.76;31.20
44926;BME280;30662;51.210;7.656;2022-08-16T13:29:39;95759.06;;;30.09;31.21